Pti Huang He — VRQD8 — position and weather

sailwx.info

Track history (hours):
 
Tides and Currents Weather Stations Pressure Air Temp Water Temp Dewpoint Dewpoint Depression Visibility Wind Speed Wind Dir Waves Ship Positions

Pti Huang He

Last reported at 2017-Dec-20 12:50 UTC. Time now 2018-Jan-23 04:28 UTC.
Position N 28°52' W 089°22'.
Warning: this ship's position is 33 days out of date.

Length 183 m; draft 8.5 m.

Type: Tanker. MMSI: 477252200.

Date/timePositionNaut miles runAvg speedWind from/ knotsBaromVisibWave heightAir tempDewpointWater temp
2017-Dec-20 12:50N 28°52' W 089°22'0 0.0
2017-Dec-20 12:23N 28°52' W 089°22'  
2017-Dec-15 17:38N 09°41' W 079°58'213.9
2017-Dec-15 17:28N 09°38' W 079°57'613.7
2017-Dec-15 17:00N 09°32' W 079°55'611.7
2017-Dec-15 16:30N 09°27' W 079°54'4 8.3
2017-Dec-15 16:00N 09°23' W 079°55'3 5.7
2017-Dec-15 15:30N 09°20' W 079°55'3 5.9
2017-Dec-15 15:00N 09°17' W 079°55'0 0.8
2017-Dec-15 14:30N 09°17' W 079°55'0 0.6
2017-Dec-15 14:00N 09°16' W 079°55'0 0.5
2017-Dec-15 13:30N 09°16' W 079°55'1 2.1
2017-Dec-15 13:00N 09°15' W 079°55'3 6.4
2017-Dec-15 12:30N 09°12' W 079°54'13 9.6
2017-Dec-15 11:12N 09°07' W 079°42'  
Track history (hours):
 
Tides and Currents Weather Stations Pressure Air Temp Water Temp Dewpoint Dewpoint Depression Visibility Wind Speed Wind Dir Waves Ship Positions

Pti Huang He

Last reported at 2017-Dec-20 12:50 UTC. Time now 2018-Jan-23 04:28 UTC.
Position N 28°52' W 089°22'.
Warning: this ship's position is 33 days out of date.

Length 183 m; draft 8.5 m.

Type: Tanker. MMSI: 477252200.

Date/timePositionNaut miles runAvg speedWind from/ knotsBaromVisibWave heightAir tempDewpointWater temp
2017-Dec-20 12:50N 28°52' W 089°22'0 0.0
2017-Dec-20 12:23N 28°52' W 089°22'  
2017-Dec-15 17:38N 09°41' W 079°58'213.9
2017-Dec-15 17:28N 09°38' W 079°57'613.7
2017-Dec-15 17:00N 09°32' W 079°55'611.7
2017-Dec-15 16:30N 09°27' W 079°54'4 8.3
2017-Dec-15 16:00N 09°23' W 079°55'3 5.7
2017-Dec-15 15:30N 09°20' W 079°55'3 5.9
2017-Dec-15 15:00N 09°17' W 079°55'0 0.8
2017-Dec-15 14:30N 09°17' W 079°55'0 0.6
2017-Dec-15 14:00N 09°16' W 079°55'0 0.5
2017-Dec-15 13:30N 09°16' W 079°55'1 2.1
2017-Dec-15 13:00N 09°15' W 079°55'3 6.4
2017-Dec-15 12:30N 09°12' W 079°54'13 9.6
2017-Dec-15 11:12N 09°07' W 079°42'  

Dump ship's entire track history